Flugplatz Hannover

Bericht für EDDV

vom 01.12. um 05:20 UTC

Wind 4 kt aus 180°

Sichtweite 10 km oder mehr

gering bewölkt in 800 ft

aufgebrochene Bewölkung in 1100 ft

Temperatur 3.0°C

Taupunkt 2.0°C

Luftfeuchtigkeit 93%

Luftdruck 1010 hPa

EDDV 010520Z 18004KT 150V210 9999 FEW008 BKN011 03/02 Q1010 TEMPO BKN008

Prognose für EDDV

vom 01.12. um 05:00 UTC

Zwischen 06:00 UTC und 06:00 UTC

Wind 9 kt aus 190°

Sichtweite 8000 m

aufgebrochene Bewölkung in 1200 ft


Zwischen 06:00 und 08:00 UTC übergehend zu

Wind 4 kt aus 180°

Sichtweite 8000 m

bedeckt in 700 ft


Zwischen 06:00 UTC und 06:00 UTC zeitweise

Sichtweite 4000 m

schwacher Regen

schwacher Sprühregen


Zwischen 10:00 UTC und 06:00 UTC zeitweise mit einer Wahrscheinlichkeit von 30%

Sichtweite 2500 m

Sprühregen

aufgebrochene Bewölkung in 400 ft


Zwischen 12:00 und 14:00 UTC übergehend zu

Wind 5 kt aus 80°

Sichtweite 8000 m

bedeckt in 700 ft

TAF EDDV 010500Z 0106/0206 19009KT 8000 BKN012 BECMG 0106/0108 18004KT OVC007 TEMPO 0106/0206 4000 -RADZ PROB30 TEMPO 0110/0206 2500 DZ BKN004 BECMG 0112/0114 08005KT
Impressum